createdAt,value
2018-11-02T00:01:42.666Z,0.60
2018-11-02T00:04:18.198Z,0.40
2018-11-02T00:06:53.533Z,0.40
2018-11-02T00:09:29.883Z,0.50
2018-11-02T00:12:04.876Z,0.40
2018-11-02T00:14:40.452Z,0.40
2018-11-02T00:17:15.426Z,0.40
2018-11-02T00:19:50.236Z,0.60
2018-11-02T00:22:25.261Z,0.50
2018-11-02T00:25:00.086Z,0.67
2018-11-02T00:27:35.128Z,0.60
2018-11-02T00:30:10.160Z,0.40
2018-11-02T00:32:45.185Z,0.60
2018-11-02T00:35:20.033Z,0.50
2018-11-02T00:37:54.786Z,0.70
2018-11-02T00:40:29.499Z,1.27
2018-11-02T00:43:04.401Z,0.57
2018-11-02T00:45:40.014Z,0.53
2018-11-02T00:48:15.150Z,0.60
2018-11-02T00:50:49.827Z,0.60
2018-11-02T00:53:24.891Z,0.57
2018-11-02T00:55:59.638Z,1.60
2018-11-02T00:58:35.258Z,2.73
2018-11-02T01:01:10.190Z,2.07
2018-11-02T01:03:44.873Z,1.30
2018-11-02T01:06:19.719Z,1.20
2018-11-02T01:08:54.598Z,1.10
2018-11-02T01:11:29.307Z,1.13
2018-11-02T01:14:04.648Z,1.50
2018-11-02T01:16:39.502Z,1.37
2018-11-02T01:19:14.435Z,0.83
2018-11-02T01:21:49.139Z,0.90
2018-11-02T01:24:24.058Z,0.97
2018-11-02T01:26:58.755Z,1.03
2018-11-02T01:29:33.894Z,1.67
2018-11-02T01:32:08.937Z,1.03
2018-11-02T01:34:43.882Z,1.50
2018-11-02T01:37:18.698Z,1.20
2018-11-02T01:39:53.621Z,1.67
2018-11-02T01:42:29.161Z,1.53
2018-11-02T01:45:04.676Z,1.67
2018-11-02T01:47:39.539Z,1.53
2018-11-02T01:50:14.961Z,1.30
2018-11-02T01:52:49.948Z,1.10
2018-11-02T01:55:25.062Z,1.10
2018-11-02T01:57:59.766Z,1.00
2018-11-02T02:00:34.570Z,0.93
2018-11-02T02:03:09.571Z,0.90
2018-11-02T02:05:44.323Z,1.27
2018-11-02T02:08:19.125Z,1.17
2018-11-02T02:10:53.942Z,1.10
2018-11-02T02:13:28.811Z,1.00
2018-11-02T02:16:03.826Z,1.20
2018-11-02T02:18:38.517Z,1.20
2018-11-02T02:21:13.554Z,1.37
2018-11-02T02:23:48.294Z,1.60
2018-11-02T02:26:23.071Z,1.70
2018-11-02T02:28:57.945Z,1.80
2018-11-02T02:31:32.939Z,1.80
2018-11-02T02:34:07.744Z,2.13
2018-11-02T02:36:43.131Z,1.70
2018-11-02T02:39:17.788Z,1.50
2018-11-02T02:41:52.730Z,1.80
2018-11-02T02:44:27.743Z,1.50
2018-11-02T02:47:02.571Z,1.60
2018-11-02T02:49:37.602Z,1.27
2018-11-02T02:52:12.513Z,1.50
2018-11-02T02:54:47.429Z,1.60
2018-11-02T02:57:22.130Z,1.40
2018-11-02T02:59:57.654Z,1.60
2018-11-02T03:02:32.683Z,1.33
2018-11-02T03:05:07.813Z,1.80
2018-11-02T03:07:43.019Z,1.50
2018-11-02T03:10:17.976Z,1.50
2018-11-02T03:12:52.917Z,1.60
2018-11-02T03:15:27.790Z,2.20
2018-11-02T03:18:02.689Z,2.67
2018-11-02T03:20:38.153Z,3.10
2018-11-02T03:23:13.315Z,2.73
2018-11-02T03:25:48.054Z,2.80
2018-11-02T03:28:23.154Z,2.30
2018-11-02T03:30:58.727Z,2.50
2018-11-02T03:33:33.803Z,2.10
2018-11-02T03:36:08.687Z,2.40
2018-11-02T03:38:43.503Z,1.73
2018-11-02T03:41:18.450Z,1.80
2018-11-02T03:43:53.371Z,1.70
2018-11-02T03:46:28.994Z,1.80
2018-11-02T03:49:03.839Z,2.03
2018-11-02T03:51:38.828Z,2.23
2018-11-02T03:54:14.477Z,2.10
2018-11-02T03:56:49.318Z,2.40
2018-11-02T03:59:24.437Z,2.30
2018-11-02T04:01:59.507Z,2.63
2018-11-02T04:04:34.428Z,2.10
2018-11-02T04:07:09.387Z,2.23
2018-11-02T04:09:44.451Z,2.53
2018-11-02T04:12:19.394Z,2.57
2018-11-02T04:14:54.478Z,2.17
2018-11-02T04:17:29.935Z,2.17
2018-11-02T04:20:06.318Z,2.10
2018-11-02T04:22:41.386Z,2.00
2018-11-02T04:25:16.425Z,2.30
2018-11-02T04:27:51.236Z,2.40
2018-11-02T04:30:25.849Z,2.87
2018-11-02T04:33:00.812Z,3.40
2018-11-02T04:35:35.546Z,3.37
2018-11-02T04:38:10.482Z,2.37
2018-11-02T04:40:45.803Z,2.23
2018-11-02T04:43:21.221Z,2.10
2018-11-02T04:45:55.853Z,2.80
2018-11-02T04:48:30.893Z,2.50
2018-11-02T04:51:06.496Z,2.03
2018-11-02T04:53:41.231Z,2.43
2018-11-02T04:56:16.199Z,2.27
2018-11-02T04:58:51.326Z,2.20
2018-11-02T05:01:26.988Z,2.30
2018-11-02T05:04:02.124Z,2.30
2018-11-02T05:06:36.786Z,2.40
2018-11-02T05:09:11.674Z,2.70
2018-11-02T05:11:46.602Z,2.50
2018-11-02T05:14:21.515Z,2.93
2018-11-02T05:16:56.212Z,2.60
2018-11-02T05:19:31.152Z,2.53
2018-11-02T05:22:05.948Z,2.47
2018-11-02T05:24:41.378Z,2.57
2018-11-02T05:27:16.225Z,2.30
2018-11-02T05:29:51.245Z,2.10
2018-11-02T05:32:27.217Z,2.30
2018-11-02T05:35:02.043Z,2.00
2018-11-02T05:37:37.395Z,1.90
2018-11-02T05:40:12.815Z,1.90
2018-11-02T05:42:47.979Z,2.00
2018-11-02T05:45:24.185Z,2.00
2018-11-02T05:47:59.665Z,1.80
2018-11-02T05:50:34.512Z,2.07
2018-11-02T05:53:09.217Z,2.87
2018-11-02T05:55:43.947Z,2.87
2018-11-02T05:58:18.949Z,3.00
2018-11-02T06:00:53.804Z,3.23
2018-11-02T06:03:28.905Z,3.20
2018-11-02T06:06:04.193Z,3.00
2018-11-02T06:08:39.421Z,2.83
2018-11-02T06:11:14.357Z,3.00
2018-11-02T06:13:49.090Z,3.00
2018-11-02T06:16:24.083Z,3.23
2018-11-02T06:18:58.773Z,3.30
2018-11-02T06:21:33.680Z,3.50
2018-11-02T06:24:09.047Z,4.77
2018-11-02T06:26:44.355Z,4.77
2018-11-02T06:29:18.996Z,3.17
2018-11-02T06:31:54.436Z,2.80
2018-11-02T06:34:32.139Z,2.77
2018-11-02T06:37:07.143Z,2.80
2018-11-02T06:39:42.080Z,3.30
2018-11-02T06:42:17.063Z,3.90
2018-11-02T06:44:52.786Z,3.90
2018-11-02T06:47:27.839Z,3.80
2018-11-02T06:50:03.733Z,5.17
2018-11-02T06:52:39.910Z,5.70
2018-11-02T06:55:15.842Z,4.87
2018-11-02T06:57:51.406Z,5.37
2018-11-02T07:00:26.727Z,6.37
2018-11-02T07:03:01.592Z,3.60
2018-11-02T07:05:38.217Z,3.00
2018-11-02T07:08:13.463Z,12.13
2018-11-02T07:10:48.953Z,8.53
2018-11-02T07:13:23.846Z,5.03
2018-11-02T07:15:58.724Z,8.47
2018-11-02T07:18:33.544Z,11.03
2018-11-02T07:21:08.549Z,9.47
2018-11-02T07:23:45.258Z,7.60
2018-11-02T07:26:20.251Z,7.97
2018-11-02T07:28:54.967Z,7.80
2018-11-02T07:31:30.084Z,7.47
2018-11-02T07:34:06.004Z,10.67
2018-11-02T07:36:41.221Z,6.23
2018-11-02T07:39:30.404Z,6.97
2018-11-02T07:42:05.328Z,6.10
2018-11-02T07:44:42.262Z,6.23
2018-11-02T07:47:17.038Z,4.67
2018-11-02T07:49:52.839Z,3.60
2018-11-02T07:52:28.009Z,3.63
2018-11-02T07:55:03.518Z,3.20
2018-11-02T07:57:38.921Z,3.23
2018-11-02T08:00:15.336Z,3.10
2018-11-02T08:02:50.355Z,2.47
2018-11-02T08:05:25.283Z,2.40
2018-11-02T08:08:00.064Z,2.50
2018-11-02T08:10:34.957Z,2.80
2018-11-02T08:13:09.752Z,2.93
2018-11-02T08:15:44.552Z,2.70
2018-11-02T08:18:19.446Z,2.90
2018-11-02T08:20:54.283Z,3.50
2018-11-02T08:23:29.229Z,3.67
2018-11-02T08:26:04.191Z,4.30
2018-11-02T08:28:39.166Z,4.20
2018-11-02T08:31:14.700Z,3.20
2018-11-02T08:33:50.056Z,2.87
2018-11-02T08:36:25.472Z,2.70
2018-11-02T08:39:01.646Z,2.50
2018-11-02T08:41:36.309Z,2.70
2018-11-02T08:44:11.630Z,2.43
2018-11-02T08:46:46.474Z,2.50
2018-11-02T08:49:22.558Z,2.67
2018-11-02T08:51:57.414Z,2.60
2018-11-02T08:54:32.526Z,2.87
2018-11-02T08:57:07.623Z,2.67
2018-11-02T08:59:42.562Z,2.80
2018-11-02T09:02:17.459Z,3.13
2018-11-02T09:04:52.984Z,3.23
2018-11-02T09:07:28.079Z,4.30
2018-11-02T09:10:03.099Z,2.97
2018-11-02T09:12:38.370Z,2.70
2018-11-02T09:15:13.343Z,2.50
2018-11-02T09:17:48.163Z,2.73
2018-11-02T09:20:22.957Z,2.90
2018-11-02T09:22:57.879Z,2.90
2018-11-02T09:25:32.983Z,3.40
2018-11-02T09:28:07.955Z,3.33
2018-11-02T09:30:43.450Z,2.90
2018-11-02T09:33:18.495Z,3.60
2018-11-02T09:35:53.198Z,3.70
2018-11-02T09:38:28.142Z,3.13
2018-11-02T09:41:03.365Z,2.87
2018-11-02T09:43:38.906Z,3.77
2018-11-02T09:46:14.048Z,4.00
2018-11-02T09:48:49.186Z,4.33
2018-11-02T09:51:26.889Z,3.43
2018-11-02T09:54:02.221Z,3.87
2018-11-02T09:56:37.315Z,3.77
2018-11-02T09:59:13.179Z,3.00
2018-11-02T10:01:48.245Z,3.10
2018-11-02T10:04:23.303Z,3.10
2018-11-02T10:06:58.923Z,3.30
2018-11-02T10:09:34.337Z,3.40
2018-11-02T10:12:09.446Z,2.93
2018-11-02T10:14:44.309Z,3.40
2018-11-02T10:17:19.422Z,3.60
2018-11-02T10:19:54.466Z,3.70
2018-11-02T10:22:29.565Z,3.50
2018-11-02T10:25:04.963Z,3.40
2018-11-02T10:27:41.983Z,3.43
2018-11-02T10:30:16.892Z,3.43
2018-11-02T10:32:54.809Z,3.08
2018-11-02T10:35:30.394Z,3.12
2018-11-02T10:38:06.039Z,3.35
2018-11-02T10:40:44.006Z,3.00
2018-11-02T10:43:20.369Z,2.95
2018-11-02T10:45:58.742Z,2.70
2018-11-02T10:48:34.702Z,2.95
2018-11-02T10:51:09.998Z,2.90
2018-11-02T10:53:45.506Z,2.90
2018-11-02T10:56:21.137Z,3.27
2018-11-02T10:58:56.774Z,3.20
2018-11-02T11:01:38.242Z,3.00
2018-11-02T11:04:13.705Z,2.92
2018-11-02T11:06:49.694Z,2.80
2018-11-02T11:09:26.121Z,3.00
2018-11-02T11:12:01.645Z,2.90
2018-11-02T11:14:37.345Z,2.80
2018-11-02T11:17:13.077Z,2.80
2018-11-02T11:19:48.364Z,3.60
2018-11-02T11:22:24.020Z,4.00
2018-11-02T11:24:59.639Z,2.40
2018-11-02T11:27:35.318Z,2.25
2018-11-02T11:30:19.378Z,2.70
2018-11-02T11:32:54.572Z,2.37
2018-11-02T11:35:29.667Z,3.10
2018-11-02T11:38:04.982Z,2.80
2018-11-02T11:40:40.105Z,2.80
2018-11-02T11:43:15.256Z,2.20
2018-11-02T11:45:50.511Z,2.50
2018-11-02T11:48:26.029Z,2.00
2018-11-02T11:51:01.299Z,2.50
2018-11-02T11:53:36.999Z,2.37
2018-11-02T11:56:12.152Z,2.50
2018-11-02T11:58:47.281Z,3.07
2018-11-02T12:01:23.410Z,3.13
2018-11-02T12:03:59.154Z,2.80
2018-11-02T12:06:34.432Z,3.20
2018-11-02T12:09:10.052Z,3.13
2018-11-02T12:11:45.199Z,2.60
2018-11-02T12:14:20.209Z,3.10
2018-11-02T12:16:55.644Z,3.10
2018-11-02T12:19:30.679Z,3.03
2018-11-02T12:22:06.150Z,3.10
2018-11-02T12:24:41.246Z,3.00
2018-11-02T12:27:16.291Z,2.70
2018-11-02T12:29:51.425Z,2.90
2018-11-02T12:32:26.290Z,2.43
2018-11-02T12:35:01.607Z,2.57
2018-11-02T12:37:36.929Z,2.60
2018-11-02T12:40:14.702Z,2.50
2018-11-02T12:42:51.369Z,2.67
2018-11-02T12:45:27.056Z,3.07
2018-11-02T12:48:02.329Z,2.60
2018-11-02T12:50:37.610Z,3.17
2018-11-02T12:53:12.555Z,3.00
2018-11-02T12:55:47.568Z,3.00
2018-11-02T12:58:22.663Z,3.43
2018-11-02T13:00:57.635Z,3.07
2018-11-02T13:03:32.515Z,2.70
2018-11-02T13:06:08.433Z,2.60
2018-11-02T13:08:43.713Z,2.47
2018-11-02T13:11:18.530Z,3.03
2018-11-02T13:13:53.629Z,2.30
2018-11-02T13:16:29.175Z,2.00
2018-11-02T13:19:04.536Z,2.63
2018-11-02T13:21:39.527Z,2.40
2018-11-02T13:24:14.537Z,2.40
2018-11-02T13:26:49.706Z,2.23
2018-11-02T13:29:24.577Z,2.50
2018-11-02T13:31:59.445Z,5.10
2018-11-02T13:34:35.148Z,3.30
2018-11-02T13:37:10.194Z,3.00
2018-11-02T13:39:45.222Z,2.47
2018-11-02T13:42:20.308Z,2.37
2018-11-02T13:44:55.187Z,2.80
2018-11-02T13:47:30.594Z,2.70
2018-11-02T13:50:13.370Z,2.40
2018-11-02T13:52:49.092Z,2.30
2018-11-02T13:55:24.012Z,2.73
2018-11-02T13:57:59.316Z,2.77
2018-11-02T14:00:34.351Z,3.10
2018-11-02T14:03:09.158Z,2.50
2018-11-02T14:05:45.061Z,2.23
2018-11-02T14:08:20.033Z,1.97
2018-11-02T14:10:55.093Z,2.20
2018-11-02T14:13:30.090Z,2.50
2018-11-02T14:16:05.145Z,2.80
2018-11-02T14:18:40.142Z,2.40
2018-11-02T14:21:15.244Z,2.33
2018-11-02T14:23:50.273Z,4.37
2018-11-02T14:26:25.333Z,2.77
2018-11-02T14:29:00.369Z,1.80
2018-11-02T14:31:35.273Z,2.50
2018-11-02T14:34:10.242Z,2.33
2018-11-02T14:36:45.461Z,3.00
2018-11-02T14:39:20.717Z,2.60
2018-11-02T14:41:55.786Z,2.43
2018-11-02T14:44:30.987Z,2.43
2018-11-02T14:47:06.631Z,2.53
2018-11-02T14:49:41.816Z,2.33
2018-11-02T14:52:17.544Z,2.40
2018-11-02T14:54:52.822Z,2.73
2018-11-02T14:57:27.525Z,2.63
2018-11-02T15:00:02.663Z,3.00
2018-11-02T15:02:37.673Z,2.70
2018-11-02T15:05:13.434Z,2.63
2018-11-02T15:07:48.940Z,2.53
2018-11-02T15:10:23.926Z,2.40
2018-11-02T15:12:59.416Z,2.27
2018-11-02T15:15:34.507Z,2.43
2018-11-02T15:18:10.154Z,2.50
2018-11-02T15:20:45.047Z,2.30
2018-11-02T15:23:20.124Z,2.63
2018-11-02T15:25:55.456Z,2.80
2018-11-02T15:28:30.222Z,2.60
2018-11-02T15:31:05.990Z,2.80
2018-11-02T15:33:41.050Z,2.83
2018-11-02T15:36:16.070Z,3.10
2018-11-02T15:38:51.870Z,2.70
2018-11-02T15:41:26.726Z,3.00
2018-11-02T15:44:01.552Z,3.13
2018-11-02T15:46:36.555Z,3.47
2018-11-02T15:49:11.722Z,4.17
2018-11-02T15:51:47.202Z,4.37
2018-11-02T15:54:22.190Z,3.60
2018-11-02T15:56:57.541Z,3.60
2018-11-02T15:59:32.482Z,3.50
2018-11-02T16:02:08.534Z,3.67
2018-11-02T16:04:43.527Z,3.70
2018-11-02T16:07:18.752Z,3.40
2018-11-02T16:09:53.541Z,3.60
2018-11-02T16:12:28.399Z,4.53
2018-11-02T16:15:03.832Z,4.87
2018-11-02T16:17:39.101Z,4.40
2018-11-02T16:20:15.028Z,5.23
2018-11-02T16:22:49.892Z,5.20
2018-11-02T16:25:24.793Z,8.93
2018-11-02T16:28:00.229Z,10.70
2018-11-02T16:30:35.100Z,23.07
2018-11-02T16:33:10.027Z,17.50
2018-11-02T16:35:44.947Z,14.00
2018-11-02T16:38:19.802Z,11.77
2018-11-02T16:40:55.411Z,13.10
2018-11-02T16:43:30.383Z,12.17
2018-11-02T16:46:05.845Z,10.90
2018-11-02T16:48:40.550Z,7.30
2018-11-02T16:51:16.196Z,3.93
2018-11-02T16:53:51.023Z,5.20
2018-11-02T16:56:26.020Z,5.00
2018-11-02T16:59:01.200Z,5.77
2018-11-02T17:01:36.214Z,5.70
2018-11-02T17:04:12.051Z,6.00
2018-11-02T17:06:46.943Z,6.20
2018-11-02T17:09:21.964Z,5.33
2018-11-02T17:11:56.992Z,5.90
2018-11-02T17:14:31.754Z,24.20
2018-11-02T17:17:06.660Z,7.10
2018-11-02T17:19:42.202Z,6.20
2018-11-02T17:22:17.450Z,5.80
2018-11-02T17:24:52.541Z,6.57
2018-11-02T17:27:27.625Z,6.97
2018-11-02T17:30:02.863Z,6.33
2018-11-02T17:32:38.024Z,5.80
2018-11-02T17:35:12.951Z,6.40
2018-11-02T17:37:48.090Z,5.83
2018-11-02T17:40:23.063Z,6.20
2018-11-02T17:42:57.905Z,5.60
2018-11-02T17:45:32.918Z,12.13
2018-11-02T17:48:07.928Z,6.47
2018-11-02T17:50:42.980Z,6.07
2018-11-02T17:53:17.718Z,5.27
2018-11-02T17:55:52.805Z,5.93
2018-11-02T17:58:27.928Z,6.27
2018-11-02T18:01:03.248Z,13.20
2018-11-02T18:03:38.430Z,7.87
2018-11-02T18:06:13.366Z,12.87
2018-11-02T18:08:48.175Z,25.00
2018-11-02T18:11:23.269Z,20.80
2018-11-02T18:13:58.317Z,29.27
2018-11-02T18:16:33.094Z,31.90
2018-11-02T18:19:08.285Z,23.10
2018-11-02T18:21:43.210Z,11.50
2018-11-02T18:24:18.190Z,9.53
2018-11-02T18:26:53.658Z,10.47
2018-11-02T18:29:28.357Z,10.77
2018-11-02T18:32:03.294Z,10.57
2018-11-02T18:34:38.361Z,9.27
2018-11-02T18:37:13.457Z,7.87
2018-11-02T18:39:48.736Z,8.63
2018-11-02T18:42:23.770Z,7.97
2018-11-02T18:44:58.859Z,7.83
2018-11-02T18:47:39.222Z,7.67
2018-11-02T18:50:15.785Z,7.70
2018-11-02T18:52:51.232Z,7.37
2018-11-02T18:55:26.959Z,7.40
2018-11-02T18:58:02.231Z,7.47
2018-11-02T19:00:37.182Z,7.27
2018-11-02T19:03:11.961Z,7.93
2018-11-02T19:05:47.011Z,7.43
2018-11-02T19:08:22.622Z,7.17
2018-11-02T19:10:57.817Z,7.70
2018-11-02T19:13:32.919Z,7.40
2018-11-02T19:16:08.808Z,7.50
2018-11-02T19:18:43.497Z,15.23
2018-11-02T19:21:18.508Z,32.97
2018-11-02T19:23:53.573Z,24.70
2018-11-02T19:26:28.684Z,12.50
2018-11-02T19:29:03.598Z,12.10
2018-11-02T19:31:38.358Z,11.87
2018-11-02T19:34:13.912Z,11.90
2018-11-02T19:36:48.904Z,10.77
2018-11-02T19:39:23.933Z,11.90
2018-11-02T19:41:58.795Z,11.80
2018-11-02T19:44:34.083Z,10.57
2018-11-02T19:47:08.782Z,10.20
2018-11-02T19:49:43.863Z,11.50
2018-11-02T19:52:18.722Z,10.43
2018-11-02T19:54:53.694Z,10.80
2018-11-02T19:57:28.719Z,11.37
2018-11-02T20:00:04.030Z,10.43
2018-11-02T20:02:39.678Z,10.97
2018-11-02T20:05:16.539Z,13.20
2018-11-02T20:07:51.749Z,11.50
2018-11-02T20:10:26.750Z,12.27
2018-11-02T20:13:01.725Z,13.47
2018-11-02T20:15:36.738Z,11.30
2018-11-02T20:18:11.650Z,11.33
2018-11-02T20:20:46.662Z,10.77
2018-11-02T20:23:22.318Z,10.33
2018-11-02T20:25:57.442Z,9.90
2018-11-02T20:28:32.304Z,10.10
2018-11-02T20:31:07.384Z,22.17
2018-11-02T20:33:42.257Z,29.60
2018-11-02T20:36:17.493Z,12.10
2018-11-02T20:38:52.772Z,13.83
2018-11-02T20:41:27.842Z,11.70
2018-11-02T20:44:02.653Z,12.97
2018-11-02T20:46:37.694Z,13.20
2018-11-02T20:49:13.104Z,10.90
2018-11-02T20:51:48.071Z,10.17
2018-11-02T20:54:23.601Z,10.70
2018-11-02T20:56:59.059Z,10.30
2018-11-02T20:59:33.997Z,10.20
2018-11-02T21:02:09.030Z,10.47
2018-11-02T21:04:44.081Z,9.33
2018-11-02T21:07:18.963Z,9.10
2018-11-02T21:09:53.964Z,9.63
2018-11-02T21:12:28.967Z,10.23
2018-11-02T21:15:03.922Z,9.63
2018-11-02T21:17:39.378Z,9.37
2018-11-02T21:20:16.109Z,9.97
2018-11-02T21:22:51.166Z,9.00
2018-11-02T21:25:26.499Z,9.33
2018-11-02T21:28:01.395Z,9.30
2018-11-02T21:30:36.458Z,8.77
2018-11-02T21:33:11.236Z,8.73
2018-11-02T21:35:46.073Z,8.77
2018-11-02T21:38:20.936Z,8.10
2018-11-02T21:40:55.742Z,8.53
2018-11-02T21:43:30.746Z,9.13
2018-11-02T21:46:06.138Z,10.17
2018-11-02T21:48:41.142Z,12.53
2018-11-02T21:51:16.586Z,11.30
2018-11-02T21:53:52.265Z,9.80
2018-11-02T21:56:27.267Z,9.27
2018-11-02T21:59:02.304Z,7.93
2018-11-02T22:01:37.068Z,8.97
2018-11-02T22:04:12.072Z,9.67
2018-11-02T22:06:47.070Z,11.00
2018-11-02T22:09:21.966Z,10.93
2018-11-02T22:11:56.971Z,10.50
2018-11-02T22:14:31.952Z,9.07
2018-11-02T22:17:06.953Z,9.13
2018-11-02T22:19:41.983Z,9.97
2018-11-02T22:22:16.951Z,10.30
2018-11-02T22:24:52.185Z,9.23
2018-11-02T22:27:28.751Z,9.27
2018-11-02T22:30:03.949Z,8.90
2018-11-02T22:32:39.234Z,9.17
2018-11-02T22:35:15.078Z,12.13
2018-11-02T22:37:49.723Z,9.30
2018-11-02T22:40:24.665Z,8.97
2018-11-02T22:42:59.669Z,8.93
2018-11-02T22:45:34.604Z,10.03
2018-11-02T22:48:14.764Z,9.00
2018-11-02T22:50:49.795Z,9.07
2018-11-02T22:53:25.526Z,8.67
2018-11-02T22:56:01.165Z,7.83
2018-11-02T22:58:36.005Z,7.23
2018-11-02T23:01:16.311Z,7.97
2018-11-02T23:03:51.372Z,7.70
2018-11-02T23:06:26.504Z,9.33
2018-11-02T23:09:01.574Z,8.37
2018-11-02T23:11:37.291Z,9.27
2018-11-02T23:14:12.525Z,8.97
2018-11-02T23:16:47.577Z,8.83
2018-11-02T23:19:22.871Z,8.70
2018-11-02T23:21:57.796Z,7.73
2018-11-02T23:24:32.813Z,8.97
2018-11-02T23:27:07.542Z,9.20
2018-11-02T23:29:42.511Z,9.47
2018-11-02T23:32:17.641Z,10.67
2018-11-02T23:34:52.600Z,9.97
2018-11-02T23:37:27.528Z,11.90
2018-11-02T23:40:02.618Z,11.17
2018-11-02T23:42:37.575Z,9.77
2018-11-02T23:45:12.889Z,9.70
2018-11-02T23:47:53.035Z,9.93
2018-11-02T23:50:28.212Z,8.70
2018-11-02T23:53:03.034Z,9.00
2018-11-02T23:55:38.644Z,9.10
2018-11-02T23:58:13.707Z,9.67
